Terminal Aerodrome Forecast
Issued by NWS

Home | Current Version | Previous Version | Graphics & Text | Print | Product List | Glossary Off
Versions: 1 2 3 4 5 6 7 8 9 10 11 12 13

000
FTUS43 KDDC 250520
TAFGCK
TAF
KGCK 250520Z 2506/2606 15012KT P6SM SKC
     FM250800 16011KT P6SM SKC WS020/18045KT
     FM251200 18010KT P6SM SKC
     FM251600 21012G20KT P6SM SKC
     FM260100 12012KT P6SM SKC=

USA.gov is the U.S. government's official web portal to all federal, state and local government web resources and services.